Lucerne, Washington
Current Conditions -  °F | °C
As of 2:22 AM on Friday 31 Oct 2014 (Local Time) from KEAT Reporting Station
Light Rain Light Rain  
Wind Chill: 50°   Ceiling: 2400
Heat Index: 50°   Visibility: 1.7mi
Dew Point: 47°   Wind: 6mph
Humidity: 89%   Direction: 10°N
Pressure: 29.76"   Gusts: NA
Location:  47.9044°N, 120.153°W
Report Text: KEAT 310922Z AUTO 01005KT 1 3/4SM -RA BR BKN024 OVC060 10/08 A2976 RMK AO2 VIS 1 1/2V3 PRESFR P0001 T01000083
Loading
Personal Weather Stations






























Interactive Weather Map
Tropical Storm Tracking
New forecast layout! Learn more

10-Day Weather Forecast

Advertisements
Track Severe Weather on mobile